Toyotsu Maru — JD2431 — position and weather

sailwx.info

Track history (hours):
 
Tides and Currents Weather Stations Pressure Air Temp Water Temp Dewpoint Dewpoint Depression Visibility Wind Speed Wind Dir Waves Ship Positions

Toyotsu Maru

Last reported at 2018-Jan-21 18:43 UTC. Time now 2018-Jan-22 15:46 UTC.
Position N 33°16' E 131°40'.

Length 76 m.

Type: Cargo ship. MMSI: 431000213.

Date/timePositionNaut miles runAvg speedWind from/ knotsBaromVisibWave heightAir tempDewpointWater temp
2018-Jan-21 18:43N 33°16' E 131°40'5 0.2
2018-Jan-20 19:30N 33°21' E 131°41'0 0.1
2018-Jan-20 18:23N 33°21' E 131°41'812.0
2018-Jan-20 17:45N 33°26' E 131°48'413.3
2018-Jan-20 17:29N 33°27' E 131°52'14211.4
2018-Jan-20 05:02N 34°27' E 134°27'212.4
2018-Jan-20 04:51N 34°28' E 134°30'412.7
2018-Jan-20 04:30N 34°29' E 134°35'612.7
2018-Jan-20 04:00N 34°32' E 134°42'713.9
2018-Jan-20 03:30N 34°34' E 134°50'714.1
2018-Jan-20 03:00N 34°37' E 134°58'713.3
2018-Jan-20 02:30N 34°36' E 135°06'713.0
2018-Jan-20 02:00N 34°36' E 135°14'612.8
2018-Jan-20 01:30N 34°36' E 135°21'5 8.4
2018-Jan-20 00:56N 34°35' E 135°27'0 0.0
2018-Jan-20 00:26N 34°35' E 135°27'0 0.0
2018-Jan-19 23:56N 34°35' E 135°27'0 0.0
2018-Jan-19 23:26N 34°35' E 135°27'0 0.0
2018-Jan-19 22:56N 34°35' E 135°27'0 0.0
2018-Jan-19 22:26N 34°35' E 135°27'0 0.0
2018-Jan-19 21:32N 34°35' E 135°27'0 0.0
2018-Jan-19 21:20N 34°35' E 135°27'0 0.0
2018-Jan-19 20:56N 34°35' E 135°27'0 0.0
2018-Jan-19 20:26N 34°35' E 135°27'0 0.0
2018-Jan-19 19:56N 34°35' E 135°27'0 0.0
2018-Jan-19 19:29N 34°35' E 135°27'0 0.0
2018-Jan-19 18:56N 34°35' E 135°27'0 0.0
2018-Jan-19 18:26N 34°35' E 135°27'0 0.0
2018-Jan-19 17:59N 34°35' E 135°27'0 0.0
2018-Jan-19 17:26N 34°35' E 135°27'0 0.0
2018-Jan-19 16:56N 34°35' E 135°27'0 0.0
2018-Jan-19 16:20N 34°35' E 135°27'0 0.0
2018-Jan-19 15:56N 34°35' E 135°27'2 4.7
2018-Jan-19 15:30N 34°36' E 135°25'5 9.6
2018-Jan-19 15:00N 34°34' E 135°19'611.4
2018-Jan-19 14:30N 34°30' E 135°15'611.6
2018-Jan-19 13:59N 34°25' E 135°10'611.8
2018-Jan-19 13:30N 34°21' E 135°06'611.3
2018-Jan-19 13:00N 34°15' E 135°04'3 5.6
2018-Jan-19 12:30N 34°15' E 135°07'0 0.0
2018-Jan-19 11:57N 34°15' E 135°07'0 0.0
2018-Jan-19 11:21N 34°15' E 135°07'0 0.0
2018-Jan-19 10:54N 34°15' E 135°07'0 0.0
2018-Jan-19 10:30N 34°15' E 135°07'0 0.0
2018-Jan-19 10:00N 34°15' E 135°07'0 0.0
2018-Jan-19 09:30N 34°15' E 135°07'0 0.0
2018-Jan-19 09:00N 34°15' E 135°07'0 0.0
2018-Jan-19 08:30N 34°15' E 135°07'0 0.0
2018-Jan-19 07:57N 34°15' E 135°07'0 0.0
2018-Jan-19 07:30N 34°15' E 135°07'0 0.0
2018-Jan-19 07:00N 34°15' E 135°07'0 0.0
2018-Jan-19 06:27N 34°15' E 135°07'0 0.0
2018-Jan-19 05:57N 34°15' E 135°07'0 0.0
2018-Jan-19 05:27N 34°15' E 135°07'0 0.0
2018-Jan-19 05:00N 34°15' E 135°07'0 0.0
2018-Jan-19 04:30N 34°15' E 135°07'0 0.0
2018-Jan-19 03:57N 34°15' E 135°07'0 0.0
2018-Jan-19 03:27N 34°15' E 135°07'0 0.0
2018-Jan-19 02:57N 34°15' E 135°07'0 0.0
2018-Jan-19 02:30N 34°15' E 135°07'0 0.0
2018-Jan-19 02:00N 34°15' E 135°07'0 0.3
2018-Jan-19 01:30N 34°15' E 135°07'1 1.2
2018-Jan-19 00:58N 34°15' E 135°06'0 0.0
2018-Jan-19 00:28N 34°15' E 135°06'0 0.0
2018-Jan-18 23:58N 34°15' E 135°06'0 0.0
2018-Jan-18 23:28N 34°15' E 135°06'0 0.0
2018-Jan-18 22:58N 34°15' E 135°06'0 0.0
2018-Jan-18 22:28N 34°15' E 135°06'0 0.0
2018-Jan-18 21:58N 34°15' E 135°06'0 0.0
2018-Jan-18 21:28N 34°15' E 135°06'0 0.0
2018-Jan-18 20:58N 34°15' E 135°06'0 0.0
2018-Jan-18 20:28N 34°15' E 135°06'0 0.0
2018-Jan-18 19:58N 34°15' E 135°06'0 0.0
2018-Jan-18 19:28N 34°15' E 135°06'0 0.0
2018-Jan-18 18:58N 34°15' E 135°06'0 0.0
2018-Jan-18 18:28N 34°15' E 135°06'0 0.0
2018-Jan-18 17:58N 34°15' E 135°06'0 0.0
2018-Jan-18 17:25N 34°15' E 135°06'0 0.0
2018-Jan-18 16:58N 34°15' E 135°06'0 0.0
2018-Jan-18 16:28N 34°15' E 135°06'0 0.0
2018-Jan-18 15:58N 34°15' E 135°06'0 0.0
2018-Jan-18 15:28N 34°15' E 135°06'0 0.0
2018-Jan-18 14:55N 34°15' E 135°06'0 0.0
2018-Jan-18 14:28N 34°15' E 135°06'0 0.1
2018-Jan-18 13:58N 34°15' E 135°06'0 0.0
2018-Jan-18 13:28N 34°15' E 135°06'0 0.0
2018-Jan-18 12:58N 34°15' E 135°06'0 0.1
2018-Jan-18 12:28N 34°15' E 135°06'1 1.6
2018-Jan-18 12:00N 34°14' E 135°05'610.9
2018-Jan-18 11:30N 34°09' E 135°02'812.0
2018-Jan-18 10:52N 34°03' E 134°58'412.0
2018-Jan-18 10:30N 33°59' E 134°56'  
2018-Jan-12 10:08N 34°36' E 138°55'1 8.4
2018-Jan-12 10:00N 34°36' E 138°56'610.1
2018-Jan-12 09:22N 34°39' E 139°03'410.9
2018-Jan-12 08:59N 34°42' E 139°07'510.4
2018-Jan-12 08:30N 34°44' E 139°12'  
Track history (hours):
 
Tides and Currents Weather Stations Pressure Air Temp Water Temp Dewpoint Dewpoint Depression Visibility Wind Speed Wind Dir Waves Ship Positions

Toyotsu Maru

Last reported at 2018-Jan-21 18:43 UTC. Time now 2018-Jan-22 15:46 UTC.
Position N 33°16' E 131°40'.

Length 76 m.

Type: Cargo ship. MMSI: 431000213.

Date/timePositionNaut miles runAvg speedWind from/ knotsBaromVisibWave heightAir tempDewpointWater temp
2018-Jan-21 18:43N 33°16' E 131°40'5 0.2
2018-Jan-20 19:30N 33°21' E 131°41'0 0.1
2018-Jan-20 18:23N 33°21' E 131°41'812.0
2018-Jan-20 17:45N 33°26' E 131°48'413.3
2018-Jan-20 17:29N 33°27' E 131°52'14211.4
2018-Jan-20 05:02N 34°27' E 134°27'212.4
2018-Jan-20 04:51N 34°28' E 134°30'412.7
2018-Jan-20 04:30N 34°29' E 134°35'612.7
2018-Jan-20 04:00N 34°32' E 134°42'713.9
2018-Jan-20 03:30N 34°34' E 134°50'714.1
2018-Jan-20 03:00N 34°37' E 134°58'713.3
2018-Jan-20 02:30N 34°36' E 135°06'713.0
2018-Jan-20 02:00N 34°36' E 135°14'612.8
2018-Jan-20 01:30N 34°36' E 135°21'5 8.4
2018-Jan-20 00:56N 34°35' E 135°27'0 0.0
2018-Jan-20 00:26N 34°35' E 135°27'0 0.0
2018-Jan-19 23:56N 34°35' E 135°27'0 0.0
2018-Jan-19 23:26N 34°35' E 135°27'0 0.0
2018-Jan-19 22:56N 34°35' E 135°27'0 0.0
2018-Jan-19 22:26N 34°35' E 135°27'0 0.0
2018-Jan-19 21:32N 34°35' E 135°27'0 0.0
2018-Jan-19 21:20N 34°35' E 135°27'0 0.0
2018-Jan-19 20:56N 34°35' E 135°27'0 0.0
2018-Jan-19 20:26N 34°35' E 135°27'0 0.0
2018-Jan-19 19:56N 34°35' E 135°27'0 0.0
2018-Jan-19 19:29N 34°35' E 135°27'0 0.0
2018-Jan-19 18:56N 34°35' E 135°27'0 0.0
2018-Jan-19 18:26N 34°35' E 135°27'0 0.0
2018-Jan-19 17:59N 34°35' E 135°27'0 0.0
2018-Jan-19 17:26N 34°35' E 135°27'0 0.0
2018-Jan-19 16:56N 34°35' E 135°27'0 0.0
2018-Jan-19 16:20N 34°35' E 135°27'0 0.0
2018-Jan-19 15:56N 34°35' E 135°27'2 4.7
2018-Jan-19 15:30N 34°36' E 135°25'5 9.6
2018-Jan-19 15:00N 34°34' E 135°19'611.4
2018-Jan-19 14:30N 34°30' E 135°15'611.6
2018-Jan-19 13:59N 34°25' E 135°10'611.8
2018-Jan-19 13:30N 34°21' E 135°06'611.3
2018-Jan-19 13:00N 34°15' E 135°04'3 5.6
2018-Jan-19 12:30N 34°15' E 135°07'0 0.0
2018-Jan-19 11:57N 34°15' E 135°07'0 0.0
2018-Jan-19 11:21N 34°15' E 135°07'0 0.0
2018-Jan-19 10:54N 34°15' E 135°07'0 0.0
2018-Jan-19 10:30N 34°15' E 135°07'0 0.0
2018-Jan-19 10:00N 34°15' E 135°07'0 0.0
2018-Jan-19 09:30N 34°15' E 135°07'0 0.0
2018-Jan-19 09:00N 34°15' E 135°07'0 0.0
2018-Jan-19 08:30N 34°15' E 135°07'0 0.0
2018-Jan-19 07:57N 34°15' E 135°07'0 0.0
2018-Jan-19 07:30N 34°15' E 135°07'0 0.0
2018-Jan-19 07:00N 34°15' E 135°07'0 0.0
2018-Jan-19 06:27N 34°15' E 135°07'0 0.0
2018-Jan-19 05:57N 34°15' E 135°07'0 0.0
2018-Jan-19 05:27N 34°15' E 135°07'0 0.0
2018-Jan-19 05:00N 34°15' E 135°07'0 0.0
2018-Jan-19 04:30N 34°15' E 135°07'0 0.0
2018-Jan-19 03:57N 34°15' E 135°07'0 0.0
2018-Jan-19 03:27N 34°15' E 135°07'0 0.0
2018-Jan-19 02:57N 34°15' E 135°07'0 0.0
2018-Jan-19 02:30N 34°15' E 135°07'0 0.0
2018-Jan-19 02:00N 34°15' E 135°07'0 0.3
2018-Jan-19 01:30N 34°15' E 135°07'1 1.2
2018-Jan-19 00:58N 34°15' E 135°06'0 0.0
2018-Jan-19 00:28N 34°15' E 135°06'0 0.0
2018-Jan-18 23:58N 34°15' E 135°06'0 0.0
2018-Jan-18 23:28N 34°15' E 135°06'0 0.0
2018-Jan-18 22:58N 34°15' E 135°06'0 0.0
2018-Jan-18 22:28N 34°15' E 135°06'0 0.0
2018-Jan-18 21:58N 34°15' E 135°06'0 0.0
2018-Jan-18 21:28N 34°15' E 135°06'0 0.0
2018-Jan-18 20:58N 34°15' E 135°06'0 0.0
2018-Jan-18 20:28N 34°15' E 135°06'0 0.0
2018-Jan-18 19:58N 34°15' E 135°06'0 0.0
2018-Jan-18 19:28N 34°15' E 135°06'0 0.0
2018-Jan-18 18:58N 34°15' E 135°06'0 0.0
2018-Jan-18 18:28N 34°15' E 135°06'0 0.0
2018-Jan-18 17:58N 34°15' E 135°06'0 0.0
2018-Jan-18 17:25N 34°15' E 135°06'0 0.0
2018-Jan-18 16:58N 34°15' E 135°06'0 0.0
2018-Jan-18 16:28N 34°15' E 135°06'0 0.0
2018-Jan-18 15:58N 34°15' E 135°06'0 0.0
2018-Jan-18 15:28N 34°15' E 135°06'0 0.0
2018-Jan-18 14:55N 34°15' E 135°06'0 0.0
2018-Jan-18 14:28N 34°15' E 135°06'0 0.1
2018-Jan-18 13:58N 34°15' E 135°06'0 0.0
2018-Jan-18 13:28N 34°15' E 135°06'0 0.0
2018-Jan-18 12:58N 34°15' E 135°06'0 0.1
2018-Jan-18 12:28N 34°15' E 135°06'1 1.6
2018-Jan-18 12:00N 34°14' E 135°05'610.9
2018-Jan-18 11:30N 34°09' E 135°02'812.0
2018-Jan-18 10:52N 34°03' E 134°58'412.0
2018-Jan-18 10:30N 33°59' E 134°56'  
2018-Jan-12 10:08N 34°36' E 138°55'1 8.4
2018-Jan-12 10:00N 34°36' E 138°56'610.1
2018-Jan-12 09:22N 34°39' E 139°03'410.9
2018-Jan-12 08:59N 34°42' E 139°07'510.4
2018-Jan-12 08:30N 34°44' E 139°12'  

Dump ship's entire track history